To NAV CANADA Home Page Login to a new session Search on AWWS site Feedback and Comments Disclaimer Vers la page française équivalente Tips FAQ What's new on the site To the Forecasts and Observations / NOTAM section To "File a Flight Plan" website Publications and other links Update of the User's profile FIC Telephone Numbers My Weather Data Folder Route Weather Data Regional Weather Data Local Weather Data To the Forecasts and Observations / NOTAM section
Request Generated 01/17/2017 at 04:50:54 UTC . Weather information available at that time is displayed.

METAR/TAF

BURWASH/YT    (show WxCam)

METAR CYDB 170400Z AUTO 29007KT 240V340 9SM CLR M18/M20 A2850 RMK
SLP717=
METAR CYDB 170300Z AUTO 30006KT 270V030 9SM SCT004 M18/M20 A2850 RMK
SLP720=
SPECI CYDB 170241Z AUTO 36007KT 260V020 9SM SCT004 M18/M20 A2849 RMK
PRESFR SLP716=
SPECI CYDB 170239Z AUTO 32005KT 260V020 9SM BKN004 M18/M20 A2850 RMK
PRESFR SLP720=
SPECI CYDB 170224Z AUTO 28006KT 260V360 9SM -SN BKN004 M18/M20 A2852
RMK SLP726=
SPECI CYDB 170218Z AUTO 33004KT 270V360 9SM BKN004 M18/M20 A2851 RMK
SLP722=
METAR CYDB 170200Z AUTO 29008KT 240V310 9SM -SN OVC004 M18/M19 A2852
RMK PRESFR SLP724=

TAF AMD CYDB 170249Z 1702/1712 VRB03KT P6SM SCT005 TEMPO 1702/1705
4SM -SN BR OVC005
BECMG 1703/1705 24008KT
FM170500 24008KT P6SM SCT020
RMK FCST BASED ON AUTO OBS. NXT FCST BY 170600Z=
Your time UTC time
Weather data provided by Environment Canada and NAV CANADA